createdAt,value
2018-02-23T00:01:15.520Z,89.00
2018-02-23T00:03:44.273Z,89.10
2018-02-23T00:06:13.044Z,90.10
2018-02-23T00:08:41.810Z,89.50
2018-02-23T00:11:10.587Z,90.40
2018-02-23T00:13:39.356Z,91.80
2018-02-23T00:16:08.879Z,92.50
2018-02-23T00:18:37.634Z,92.60
2018-02-23T00:21:07.165Z,93.10
2018-02-23T00:23:35.932Z,93.10
2018-02-23T00:26:05.457Z,92.30
2018-02-23T00:28:34.219Z,91.90
2018-02-23T00:31:02.972Z,91.40
2018-02-23T00:33:31.742Z,91.70
2018-02-23T00:36:00.509Z,91.60
2018-02-23T00:38:29.285Z,91.80
2018-02-23T00:40:58.060Z,89.80
2018-02-23T00:43:27.895Z,90.70
2018-02-23T00:45:56.899Z,91.80
2018-02-23T00:48:25.666Z,92.50
2018-02-23T00:51:01.163Z,92.00
2018-02-23T00:53:29.949Z,92.20
2018-02-23T00:55:58.718Z,92.50
2018-02-23T00:58:27.783Z,93.00
2018-02-23T01:00:56.541Z,92.70
2018-02-23T01:03:25.307Z,92.80
2018-02-23T01:05:54.066Z,91.90
2018-02-23T01:08:23.599Z,92.30
2018-02-23T01:10:52.029Z,92.30
2018-02-23T01:13:20.797Z,92.80
2018-02-23T01:15:49.566Z,93.70
2018-02-23T01:18:18.331Z,93.40
2018-02-23T01:20:47.094Z,94.80
2018-02-23T01:23:16.620Z,96.00
2018-02-23T01:25:45.379Z,96.00
2018-02-23T01:28:21.469Z,95.10
2018-02-23T01:30:51.004Z,94.20
2018-02-23T01:33:19.431Z,94.20
2018-02-23T01:35:48.184Z,95.30
2018-02-23T01:38:16.944Z,95.00
2018-02-23T03:05:43.960Z,93.90
2018-02-23T03:08:12.717Z,98.90
2018-02-23T03:10:41.499Z,98.90
2018-02-23T03:13:10.261Z,97.40
2018-02-23T03:15:39.041Z,97.30
2018-02-23T03:18:07.468Z,98.50
2018-02-23T03:20:36.229Z,97.70
2018-02-23T03:23:05.747Z,97.40
2018-02-23T03:25:34.513Z,97.40
2018-02-23T03:28:03.280Z,97.60
2018-02-23T03:30:32.821Z,98.60
2018-02-23T03:33:01.586Z,98.60
2018-02-23T03:35:31.126Z,99.40
2018-02-23T03:37:59.883Z,99.40
2018-02-23T03:40:28.648Z,99.30
2018-02-23T03:42:57.416Z,99.50
2018-02-23T03:45:26.179Z,99.50
2018-02-23T03:47:54.945Z,99.50
2018-02-23T03:50:23.722Z,99.20
2018-02-23T03:52:53.249Z,99.00
2018-02-23T03:55:22.005Z,99.10
2018-02-23T03:57:51.533Z,99.90
2018-02-23T04:00:20.291Z,99.90
2018-02-23T04:02:49.049Z,99.90
2018-02-23T04:05:17.829Z,99.60
2018-02-23T04:07:46.584Z,98.90
2018-02-23T04:10:15.360Z,98.50
2018-02-23T04:12:44.878Z,98.20
2018-02-23T04:15:13.640Z,98.20
2018-02-23T04:17:42.410Z,98.00
2018-02-23T04:20:11.181Z,98.50
2018-02-23T04:22:39.949Z,98.20
2018-02-23T04:25:08.713Z,97.80
2018-02-23T04:27:38.248Z,98.30
2018-02-23T04:30:07.008Z,98.30
2018-02-23T04:32:36.211Z,97.80
2018-02-23T04:35:05.732Z,98.20
2018-02-23T04:37:34.509Z,98.20
2018-02-23T04:40:03.883Z,98.50
2018-02-23T04:42:32.643Z,98.50
2018-02-23T04:45:01.407Z,98.00
2018-02-23T04:47:30.160Z,97.00
2018-02-23T04:49:59.683Z,98.40
2018-02-23T04:52:29.220Z,97.60
2018-02-23T04:54:57.967Z,97.60
2018-02-23T04:57:27.497Z,99.00
2018-02-23T04:59:56.266Z,99.00
2018-02-23T05:02:25.823Z,99.90
2018-02-23T05:04:54.585Z,99.90
2018-02-23T05:07:23.352Z,99.90
2018-02-23T05:09:52.884Z,99.30
2018-02-23T05:12:21.636Z,99.30
2018-02-23T05:14:50.397Z,99.20
2018-02-23T05:17:19.149Z,98.90
2018-02-23T05:19:47.920Z,98.30
2018-02-23T05:22:17.251Z,98.90
2018-02-23T05:24:45.832Z,98.90
2018-02-23T05:27:14.588Z,99.40
2018-02-23T05:29:44.121Z,99.00
2018-02-23T05:32:12.695Z,99.00
2018-02-23T05:34:41.456Z,99.90
2018-02-23T05:37:10.982Z,99.90
2018-02-23T05:39:40.499Z,99.90
2018-02-23T05:42:09.263Z,99.90
2018-02-23T05:44:39.327Z,99.60
2018-02-23T05:47:08.097Z,99.60
2018-02-23T05:49:36.851Z,99.90
2018-02-23T05:52:05.619Z,99.90
2018-02-23T05:54:34.380Z,99.90
2018-02-23T05:57:02.950Z,99.90
2018-02-23T05:59:31.707Z,99.80
2018-02-23T06:02:01.232Z,99.90
2018-02-23T06:04:29.991Z,99.90
2018-02-23T06:06:59.303Z,99.10
2018-02-23T06:09:28.824Z,99.30
2018-02-23T06:11:58.348Z,98.90
2018-02-23T06:14:27.120Z,98.80
2018-02-23T06:16:56.316Z,99.70
2018-02-23T06:19:31.309Z,99.90
2018-02-23T06:22:00.261Z,99.90
2018-02-23T06:24:29.060Z,99.60
2018-02-23T06:26:57.819Z,99.90
2018-02-23T06:29:27.356Z,99.50
2018-02-23T06:31:55.931Z,99.50
2018-02-23T06:34:24.687Z,99.80
2018-02-23T06:36:54.251Z,99.90
2018-02-23T06:39:23.016Z,99.90
2018-02-23T07:57:50.034Z,99.90
2018-02-23T08:00:19.204Z,97.50
2018-02-23T08:02:48.762Z,97.50
2018-02-23T08:05:17.349Z,97.50
2018-02-23T08:07:46.115Z,99.90
2018-02-23T08:10:14.892Z,96.10
2018-02-23T08:12:43.656Z,96.90
2018-02-23T08:15:12.240Z,97.00
2018-02-23T08:17:41.005Z,97.50
2018-02-23T08:20:09.810Z,98.00
2018-02-23T08:22:38.594Z,97.30
2018-02-23T08:25:08.120Z,93.70
2018-02-23T08:27:36.900Z,93.80
2018-02-23T08:30:05.685Z,93.00
2018-02-23T08:32:35.208Z,86.90
2018-02-23T08:35:03.979Z,86.90
2018-02-23T08:37:33.511Z,84.70
2018-02-23T08:40:02.274Z,84.60
2018-02-23T08:42:31.812Z,84.10
2018-02-23T08:45:00.576Z,83.60
2018-02-23T08:47:29.381Z,77.00
2018-02-23T08:49:58.148Z,71.70
2018-02-23T08:52:27.677Z,70.60
2018-02-23T08:54:56.444Z,69.10
2018-02-23T08:57:25.224Z,71.10
2018-02-23T08:59:54.756Z,64.80
2018-02-23T09:02:23.529Z,64.70
2018-02-23T09:04:52.289Z,63.40
2018-02-23T09:07:21.057Z,60.30
2018-02-23T09:09:49.824Z,58.60
2018-02-23T09:12:18.583Z,59.20
2018-02-23T09:14:47.340Z,56.80
2018-02-23T09:17:16.095Z,55.80
2018-02-23T09:19:44.848Z,56.00
2018-02-23T09:22:13.612Z,53.80
2018-02-23T09:24:43.151Z,53.00
2018-02-23T09:27:11.930Z,52.80
2018-02-23T09:29:40.697Z,53.00
2018-02-23T09:32:21.386Z,51.80
2018-02-23T09:34:50.904Z,50.40
2018-02-23T09:37:19.668Z,50.40
2018-02-23T09:39:50.124Z,52.70
2018-02-23T09:42:18.905Z,52.70
2018-02-23T09:44:47.660Z,53.00
2018-02-23T09:47:16.423Z,53.00
2018-02-23T09:49:45.197Z,52.10
2018-02-23T09:52:13.973Z,50.90
2018-02-23T09:54:42.736Z,52.60
2018-02-23T09:57:12.099Z,50.10
2018-02-23T09:59:41.220Z,51.20
2018-02-23T10:02:09.979Z,50.70
2018-02-23T10:04:38.740Z,50.90
2018-02-23T10:07:07.499Z,50.20
2018-02-23T10:09:36.252Z,50.20
2018-02-23T10:12:04.991Z,49.30
2018-02-23T10:14:33.750Z,48.90
2018-02-23T10:17:02.514Z,48.10
2018-02-23T10:19:31.304Z,47.80
2018-02-23T10:22:00.060Z,47.30
2018-02-23T10:24:28.831Z,46.50
2018-02-23T10:26:58.132Z,45.80
2018-02-23T10:29:27.672Z,44.80
2018-02-23T10:32:01.744Z,44.80
2018-02-23T10:34:30.340Z,44.80
2018-02-23T10:36:59.883Z,44.10
2018-02-23T10:39:28.447Z,44.10
2018-02-23T10:41:57.020Z,44.10
2018-02-23T10:44:26.493Z,43.50
2018-02-23T10:46:55.255Z,42.80
2018-02-23T10:49:23.835Z,40.90
2018-02-23T10:51:52.425Z,41.70
2018-02-23T10:54:21.045Z,41.40
2018-02-23T10:56:50.583Z,41.50
2018-02-23T10:59:19.164Z,41.50
2018-02-23T11:01:47.742Z,41.60
2018-02-23T11:04:17.075Z,41.10
2018-02-23T11:06:45.679Z,41.10
2018-02-23T11:09:14.452Z,40.90
2018-02-23T11:11:43.212Z,41.20
2018-02-23T11:14:11.963Z,40.80
2018-02-23T11:16:40.729Z,41.20
2018-02-23T11:19:09.161Z,41.30
2018-02-23T11:21:37.937Z,41.00
2018-02-23T11:24:07.462Z,39.40
2018-02-23T11:26:36.057Z,39.30
2018-02-23T11:29:05.447Z,35.70
2018-02-23T11:31:34.238Z,36.60
2018-02-23T11:34:03.764Z,36.20
2018-02-23T11:36:32.560Z,36.20
2018-02-23T11:39:05.489Z,36.70
2018-02-23T11:41:34.248Z,35.90
2018-02-23T11:44:03.016Z,34.70
2018-02-23T11:46:31.785Z,35.50
2018-02-23T11:49:01.315Z,36.00
2018-02-23T11:51:30.074Z,36.00
2018-02-23T11:53:59.443Z,35.30
2018-02-23T11:56:28.205Z,35.40
2018-02-23T11:58:56.973Z,35.90
2018-02-23T12:01:25.750Z,36.10
2018-02-23T12:03:54.514Z,35.70
2018-02-23T12:06:23.280Z,35.50
2018-02-23T12:08:52.027Z,35.90
2018-02-23T12:11:21.026Z,36.10
2018-02-23T12:13:49.793Z,36.20
2018-02-23T12:16:19.147Z,36.10
2018-02-23T12:18:47.911Z,35.50
2018-02-23T12:21:16.690Z,34.80
2018-02-23T12:23:45.456Z,34.60
2018-02-23T12:26:14.989Z,35.70
2018-02-23T12:28:43.766Z,35.70
2018-02-23T12:31:12.530Z,35.30
2018-02-23T12:33:42.458Z,35.50
2018-02-23T12:36:12.250Z,34.60
2018-02-23T12:38:41.011Z,34.60
2018-02-23T12:41:09.780Z,34.50
2018-02-23T12:43:38.531Z,36.20
2018-02-23T12:46:07.403Z,35.70
2018-02-23T12:48:36.163Z,35.60
2018-02-23T12:51:05.377Z,35.50
2018-02-23T12:53:34.143Z,35.50
2018-02-23T12:56:02.898Z,35.80
2018-02-23T12:58:32.434Z,35.80
2018-02-23T13:01:01.214Z,35.80
2018-02-23T13:03:29.988Z,36.20
2018-02-23T13:05:58.763Z,36.10
2018-02-23T13:08:28.287Z,35.50
2018-02-23T13:10:57.043Z,36.10
2018-02-23T13:13:25.813Z,36.40
2018-02-23T13:15:54.856Z,36.60
2018-02-23T13:18:24.531Z,36.60
2018-02-23T13:20:53.297Z,35.90
2018-02-23T13:23:22.303Z,36.30
2018-02-23T13:25:51.073Z,36.90
2018-02-23T13:28:25.381Z,37.30
2018-02-23T13:30:54.404Z,38.00
2018-02-23T13:33:23.774Z,37.70
2018-02-23T13:35:53.128Z,36.80
2018-02-23T13:38:22.473Z,37.80
2018-02-23T13:40:56.671Z,37.60
2018-02-23T13:43:26.230Z,38.40
2018-02-23T13:45:54.804Z,38.40
2018-02-23T13:48:23.992Z,38.30
2018-02-23T13:50:54.023Z,39.00
2018-02-23T13:53:22.613Z,38.70
2018-02-23T13:55:51.406Z,38.30
2018-02-23T13:58:20.180Z,37.10
2018-02-23T14:00:49.723Z,38.40
2018-02-23T14:03:19.263Z,39.60
2018-02-23T14:05:48.044Z,38.90
2018-02-23T14:08:16.809Z,38.80
2018-02-23T14:10:46.351Z,39.50
2018-02-23T14:13:15.130Z,39.30
2018-02-23T14:15:43.904Z,39.40
2018-02-23T14:18:13.533Z,39.50
2018-02-23T14:20:42.295Z,39.40
2018-02-23T14:23:11.827Z,40.70
2018-02-23T14:25:41.350Z,40.20
2018-02-23T14:28:10.118Z,40.20
2018-02-23T14:30:38.940Z,40.00
2018-02-23T14:33:08.649Z,39.80
2018-02-23T14:35:38.112Z,39.80
2018-02-23T14:38:06.881Z,39.60
2018-02-23T14:40:35.696Z,39.30
2018-02-23T14:43:04.164Z,38.90
2018-02-23T14:45:32.596Z,38.80
2018-02-23T14:48:01.370Z,38.80
2018-02-23T14:50:41.335Z,39.20
2018-02-23T14:53:10.160Z,38.90
2018-02-23T14:55:38.916Z,39.00
2018-02-23T14:58:07.692Z,39.00
2018-02-23T15:00:36.757Z,38.40
2018-02-23T15:03:06.294Z,36.70
2018-02-23T15:05:37.253Z,36.70
2018-02-23T15:08:06.048Z,36.70
2018-02-23T15:10:34.814Z,35.10
2018-02-23T15:13:03.631Z,33.70
2018-02-23T15:15:32.406Z,33.60
2018-02-23T15:18:01.174Z,33.20
2018-02-23T15:20:29.936Z,31.60
2018-02-23T15:22:59.472Z,30.90
2018-02-23T15:25:28.236Z,30.90
2018-02-23T15:27:57.773Z,31.10
2018-02-23T15:30:37.700Z,31.10
2018-02-23T15:33:07.260Z,30.70
2018-02-23T15:35:37.659Z,32.00
2018-02-23T15:38:06.450Z,32.00
2018-02-23T15:40:35.728Z,31.70
2018-02-23T15:43:04.500Z,32.50
2018-02-23T15:45:33.085Z,32.60
2018-02-23T15:48:24.017Z,35.50
2018-02-23T15:50:58.296Z,34.80
2018-02-23T15:53:26.895Z,36.00
2018-02-23T15:55:56.241Z,35.00
2018-02-23T15:58:30.635Z,35.00
2018-02-23T16:00:59.224Z,35.80
2018-02-23T16:03:27.808Z,37.00
2018-02-23T16:05:56.390Z,38.70
2018-02-23T16:08:25.547Z,39.50
2018-02-23T16:10:54.313Z,40.20
2018-02-23T16:13:22.897Z,40.70
2018-02-23T16:15:51.657Z,41.40
2018-02-23T16:18:19.909Z,42.30
2018-02-23T16:20:49.444Z,42.70
2018-02-23T16:23:18.214Z,42.60
2018-02-23T16:25:47.748Z,43.10
2018-02-23T16:28:16.554Z,43.10
2018-02-23T16:30:45.158Z,43.20
2018-02-23T16:33:13.935Z,43.10
2018-02-23T16:35:42.700Z,43.50
2018-02-23T16:38:11.293Z,44.30
2018-02-23T16:40:40.060Z,52.20
2018-02-23T16:43:08.815Z,55.90
2018-02-23T16:45:37.587Z,53.40
2018-02-23T16:48:06.430Z,49.50
2018-02-23T16:50:35.197Z,55.40
2018-02-23T16:53:04.410Z,50.10
2018-02-23T16:55:33.760Z,49.30
2018-02-23T16:58:02.542Z,49.30
2018-02-23T17:00:31.323Z,49.30
2018-02-23T17:03:00.697Z,49.80
2018-02-23T17:05:29.475Z,50.10
2018-02-23T17:07:58.604Z,50.60
2018-02-23T17:10:27.374Z,50.40
2018-02-23T17:12:56.161Z,50.30
2018-02-23T17:15:24.925Z,50.50
2018-02-23T17:17:53.686Z,50.90
2018-02-23T17:20:22.474Z,51.10
2018-02-23T17:22:51.244Z,50.70
2018-02-23T17:25:20.018Z,50.90
2018-02-23T17:27:48.767Z,50.80
2018-02-23T17:30:17.541Z,50.60
2018-02-23T17:32:46.312Z,51.50
2018-02-23T17:35:15.076Z,51.60
2018-02-23T17:37:43.836Z,51.20
2018-02-23T17:40:13.368Z,51.10
2018-02-23T17:42:42.137Z,51.00
2018-02-23T17:45:11.668Z,51.90
2018-02-23T17:47:40.438Z,51.80
2018-02-23T17:50:09.977Z,52.40
2018-02-23T17:52:38.740Z,52.30
2018-02-23T17:55:07.503Z,52.50
2018-02-23T17:57:37.039Z,53.00
2018-02-23T18:00:05.802Z,52.70
2018-02-23T18:02:34.236Z,52.50
2018-02-23T18:05:03.007Z,52.10
2018-02-23T18:07:31.768Z,99.90
2018-02-23T18:10:01.299Z,55.90
2018-02-23T18:12:30.065Z,55.80
2018-02-23T18:14:59.585Z,50.00
2018-02-23T18:17:28.404Z,49.90
2018-02-23T18:19:57.176Z,48.60
2018-02-23T18:22:25.947Z,69.30
2018-02-23T18:24:55.513Z,53.50
2018-02-23T18:27:24.263Z,53.60
2018-02-23T18:29:53.033Z,51.10
2018-02-23T18:32:21.622Z,51.70
2018-02-23T18:34:51.135Z,51.40
2018-02-23T18:37:19.571Z,51.30
2018-02-23T18:39:48.165Z,51.40
2018-02-23T18:42:16.930Z,52.10
2018-02-23T18:44:45.709Z,53.40
2018-02-23T18:47:14.481Z,52.50
2018-02-23T18:49:43.248Z,53.90
2018-02-23T18:52:12.761Z,52.90
2018-02-23T18:54:41.538Z,52.90
2018-02-23T18:57:11.088Z,53.60
2018-02-23T18:59:39.860Z,53.50
2018-02-23T19:02:08.292Z,54.00
2018-02-23T19:04:36.865Z,53.90
2018-02-23T19:07:05.655Z,52.60
2018-02-23T19:09:34.244Z,53.20
2018-02-23T19:12:03.014Z,53.40
2018-02-23T19:14:31.587Z,53.60
2018-02-23T19:17:00.153Z,53.70
2018-02-23T19:19:29.132Z,54.00
2018-02-23T19:21:57.919Z,54.00
2018-02-23T19:24:26.688Z,53.90
2018-02-23T19:26:56.220Z,54.40
2018-02-23T19:29:25.190Z,54.00
2018-02-23T19:31:53.953Z,54.00
2018-02-23T19:34:22.727Z,54.30
2018-02-23T19:36:51.492Z,54.40
2018-02-23T19:39:21.024Z,54.50
2018-02-23T19:41:49.782Z,54.50
2018-02-23T19:44:18.557Z,55.10
2018-02-23T19:46:47.325Z,55.50
2018-02-23T19:49:16.084Z,55.50
2018-02-23T19:51:44.923Z,55.60
2018-02-23T19:54:13.897Z,56.00
2018-02-23T19:56:42.656Z,56.30
2018-02-23T19:59:12.740Z,56.60
2018-02-23T20:01:41.504Z,56.50
2018-02-23T20:04:11.029Z,56.70
2018-02-23T20:06:39.797Z,56.70
2018-02-23T20:09:09.328Z,56.20
2018-02-23T20:11:38.096Z,56.20
2018-02-23T20:14:10.986Z,56.80
2018-02-23T20:16:40.702Z,57.20
2018-02-23T20:19:11.169Z,57.20
2018-02-23T20:21:39.954Z,57.20
2018-02-23T20:24:11.141Z,57.40
2018-02-23T20:26:41.249Z,58.00
2018-02-23T20:29:18.488Z,57.30
2018-02-23T20:31:48.723Z,57.80
2018-02-23T20:34:17.178Z,57.80
2018-02-23T20:36:46.869Z,58.20
2018-02-23T20:39:15.632Z,58.10
2018-02-23T20:41:44.407Z,59.30
2018-02-23T20:44:13.174Z,59.60
2018-02-23T20:46:42.801Z,58.50
2018-02-23T20:49:11.567Z,59.20
2018-02-23T20:51:40.452Z,59.90
2018-02-23T20:54:09.229Z,61.80
2018-02-23T20:56:38.751Z,61.40
2018-02-23T20:59:07.530Z,61.30
2018-02-23T21:01:37.057Z,62.60
2018-02-23T21:04:05.814Z,62.50
2018-02-23T21:06:35.344Z,62.30
2018-02-23T21:09:04.221Z,63.30
2018-02-23T21:11:32.994Z,63.30
2018-02-23T21:14:02.529Z,61.90
2018-02-23T21:16:33.817Z,61.90
2018-02-23T21:19:02.608Z,63.40
2018-02-23T21:21:31.404Z,64.00
2018-02-23T21:24:00.412Z,65.00
2018-02-23T21:26:29.671Z,65.60
2018-02-23T21:29:00.332Z,64.80
2018-02-23T21:31:33.777Z,66.50
2018-02-23T21:34:13.772Z,67.20
2018-02-23T21:36:49.111Z,66.60
2018-02-23T21:39:18.479Z,68.40
2018-02-23T21:42:01.209Z,68.30
2018-02-23T21:44:47.820Z,67.80
2018-02-23T21:47:18.248Z,68.90
2018-02-23T21:49:51.770Z,66.80
2018-02-23T21:54:59.206Z,65.50
2018-02-23T21:57:28.207Z,66.40
2018-02-23T21:59:57.556Z,72.30
2018-02-23T22:02:26.419Z,72.30
2018-02-23T22:04:55.004Z,69.30
2018-02-23T22:07:23.768Z,70.60
2018-02-23T22:09:53.310Z,73.20
2018-02-23T22:12:22.082Z,73.50
2018-02-23T22:14:50.861Z,69.90
2018-02-23T22:17:20.392Z,74.00
2018-02-23T22:19:49.168Z,74.00
2018-02-23T22:22:17.941Z,74.20
2018-02-23T22:24:47.481Z,75.10
2018-02-23T22:27:16.244Z,75.00
2018-02-23T22:29:45.591Z,73.90
2018-02-23T22:32:14.177Z,73.90
2018-02-23T22:34:42.948Z,75.20
2018-02-23T22:37:11.719Z,75.10
2018-02-23T22:39:40.304Z,75.10
2018-02-23T22:42:09.071Z,77.00
2018-02-23T22:44:37.829Z,77.20
2018-02-23T22:47:06.604Z,77.90
2018-02-23T22:49:35.183Z,76.10
2018-02-23T22:52:04.025Z,76.30
2018-02-23T22:54:32.788Z,80.50
2018-02-23T22:57:01.552Z,81.20
2018-02-23T22:59:30.320Z,81.10
2018-02-23T23:01:59.082Z,81.90
2018-02-23T23:04:29.328Z,79.80
2018-02-23T23:06:58.863Z,81.70
2018-02-23T23:09:27.627Z,81.70
2018-02-23T23:11:56.377Z,79.60
2018-02-23T23:14:25.141Z,83.30
2018-02-23T23:16:53.915Z,81.30
2018-02-23T23:19:22.671Z,82.20
2018-02-23T23:21:52.196Z,82.00
2018-02-23T23:24:20.968Z,81.90
2018-02-23T23:26:50.493Z,80.10
2018-02-23T23:29:19.264Z,80.20
2018-02-23T23:31:48.789Z,79.10
2018-02-23T23:34:17.564Z,79.10
2018-02-23T23:36:47.097Z,83.50
2018-02-23T23:39:15.854Z,83.50
2018-02-23T23:41:45.388Z,82.60
2018-02-23T23:44:14.152Z,82.50
2018-02-23T23:46:43.339Z,81.80
2018-02-23T23:49:12.860Z,81.60
2018-02-23T23:51:42.399Z,83.50
2018-02-23T23:54:11.160Z,83.10
2018-02-23T23:56:39.915Z,87.70
2018-02-23T23:59:08.332Z,88.60
